Hlavní strana
METAR-TAF:

METAR-TAF

Letiště :

Wallis, Francie

zeměpisná šířka: 13-14S, zeměpisná délka: 176-10W, výška: 23 m

METAR: chybějící

Čas: 10:55 (22:55 UTC)

Předpověď počasí

Zpráva byla vytvořena před 5 hodinami a 55 minutami, v 17:00 UTC
Předpověď platná od 18 v 18 UTC do 19 v 18 UTC
Jihojihovýchodní vítr 10 kt
Viditelnost 10 km a více
Skoro jasno ve výšce 2500 ft
Dočasný
od 19 v 00 UTC do 19 v 18 UTC
Viditelnost: 4000 m
Skoro jasno ve výšce 2000 ft, Vertikální cumulus.
dešťové přeháňky

TAF: NLWW 181700Z 1818/1918 15010KT 9999 FEW025 TEMPO 1900/1918 4000 SHRA FEW020TCU

Stav a předpovědi počasí z více než 4 000 letišť (zprávy METAR a TAF).

Červené a žluté tečky na mapě představují dostupné meteorologické stanice.

Když kurzor umístíte na tečku, zobrazí se název stanice.

Pak kliknutím zobrazíte stav a předpověď počasí.

Chcete-li změnit mapu, kliknutím na zelené tlačítko se znaménkem +mapu přiblížíte, kliknutím na zelené tlačítko se znaménkem – mapu oddálíte a kliknutím na zelené šipky přejdete na sousední mapy.


METAR-TAF: